sensor_id;sensor_type;location;lat;lon;timestamp;pressure;altitude;pressure_sealevel;temperature;humidity
52983;BME280;48698;45.736;13.926;2023-08-06T00:01:11;96562.81;;;14.53;100.00
52983;BME280;48698;45.736;13.926;2023-08-06T00:06:14;96714.41;;;15.67;100.00
52983;BME280;48698;45.736;13.926;2023-08-06T00:11:17;96625.13;;;15.27;100.00
52983;BME280;48698;45.736;13.926;2023-08-06T00:16:21;96717.03;;;15.88;100.00
52983;BME280;48698;45.736;13.926;2023-08-06T00:21:24;96639.56;;;15.66;100.00
52983;BME280;48698;45.736;13.926;2023-08-06T00:26:27;96602.84;;;15.47;100.00
52983;BME280;48698;45.736;13.926;2023-08-06T00:31:31;96694.19;;;15.84;100.00
52983;BME280;48698;45.736;13.926;2023-08-06T00:36:33;96515.59;;;14.54;100.00
52983;BME280;48698;45.736;13.926;2023-08-06T00:41:36;96573.88;;;15.01;100.00
52983;BME280;48698;45.736;13.926;2023-08-06T00:46:39;96711.97;;;15.64;100.00
52983;BME280;48698;45.736;13.926;2023-08-06T00:51:42;96495.31;;;13.98;100.00
52983;BME280;48698;45.736;13.926;2023-08-06T00:56:46;96695.44;;;15.18;100.00
52983;BME280;48698;45.736;13.926;2023-08-06T01:01:49;96674.16;;;15.16;100.00
52983;BME280;48698;45.736;13.926;2023-08-06T01:12:21;96710.34;;;15.52;100.00
52983;BME280;48698;45.736;13.926;2023-08-06T01:17:29;96716.88;;;15.59;100.00
52983;BME280;48698;45.736;13.926;2023-08-06T01:22:32;96700.19;;;15.35;100.00
52983;BME280;48698;45.736;13.926;2023-08-06T01:27:47;96679.41;;;15.18;100.00
52983;BME280;48698;45.736;13.926;2023-08-06T01:32:54;96618.50;;;14.37;100.00
52983;BME280;48698;45.736;13.926;2023-08-06T01:38:02;96480.53;;;13.40;100.00
52983;BME280;48698;45.736;13.926;2023-08-06T01:43:06;96659.47;;;14.58;100.00
52983;BME280;48698;45.736;13.926;2023-08-06T01:48:08;96594.63;;;14.13;100.00
52983;BME280;48698;45.736;13.926;2023-08-06T01:53:11;96575.72;;;14.05;100.00
52983;BME280;48698;45.736;13.926;2023-08-06T01:58:13;96605.13;;;14.26;100.00
52983;BME280;48698;45.736;13.926;2023-08-06T02:03:16;96626.25;;;14.72;100.00
52983;BME280;48698;45.736;13.926;2023-08-06T02:08:19;96657.06;;;14.87;100.00
52983;BME280;48698;45.736;13.926;2023-08-06T02:13:22;96601.00;;;14.44;100.00
52983;BME280;48698;45.736;13.926;2023-08-06T02:18:24;96669.59;;;14.75;100.00
52983;BME280;48698;45.736;13.926;2023-08-06T02:23:27;96654.97;;;14.90;100.00
52983;BME280;48698;45.736;13.926;2023-08-06T02:28:31;96665.59;;;14.81;100.00
52983;BME280;48698;45.736;13.926;2023-08-06T02:33:34;96534.84;;;13.93;100.00
52983;BME280;48698;45.736;13.926;2023-08-06T02:38:37;96632.75;;;14.58;100.00
52983;BME280;48698;45.736;13.926;2023-08-06T02:43:39;96625.03;;;14.76;100.00
52983;BME280;48698;45.736;13.926;2023-08-06T02:48:43;96674.34;;;15.04;100.00
52983;BME280;48698;45.736;13.926;2023-08-06T02:53:47;96464.84;;;14.01;100.00
52983;BME280;48698;45.736;13.926;2023-08-06T02:58:50;96614.66;;;14.82;100.00
52983;BME280;48698;45.736;13.926;2023-08-06T03:03:53;96576.31;;;14.72;100.00
52983;BME280;48698;45.736;13.926;2023-08-06T03:08:56;96646.44;;;14.96;100.00
52983;BME280;48698;45.736;13.926;2023-08-06T03:13:59;96650.75;;;14.88;100.00
52983;BME280;48698;45.736;13.926;2023-08-06T03:19:02;96599.19;;;14.65;100.00
52983;BME280;48698;45.736;13.926;2023-08-06T03:24:04;96623.06;;;14.98;100.00
52983;BME280;48698;45.736;13.926;2023-08-06T03:29:07;96650.84;;;14.86;100.00
52983;BME280;48698;45.736;13.926;2023-08-06T03:34:10;96618.91;;;14.85;100.00
52983;BME280;48698;45.736;13.926;2023-08-06T03:39:12;96659.03;;;15.26;100.00
52983;BME280;48698;45.736;13.926;2023-08-06T03:44:16;96661.06;;;15.34;100.00
52983;BME280;48698;45.736;13.926;2023-08-06T03:49:19;96561.28;;;14.71;100.00
52983;BME280;48698;45.736;13.926;2023-08-06T03:54:22;96613.69;;;14.83;100.00
52983;BME280;48698;45.736;13.926;2023-08-06T03:59:24;96656.34;;;15.06;100.00
52983;BME280;48698;45.736;13.926;2023-08-06T04:04:27;96558.13;;;14.45;100.00
52983;BME280;48698;45.736;13.926;2023-08-06T04:09:30;96613.13;;;14.69;100.00
52983;BME280;48698;45.736;13.926;2023-08-06T04:14:33;96397.16;;;13.38;100.00
52983;BME280;48698;45.736;13.926;2023-08-06T04:19:36;96661.38;;;15.20;100.00
52983;BME280;48698;45.736;13.926;2023-08-06T04:24:39;96636.31;;;14.79;100.00
52983;BME280;48698;45.736;13.926;2023-08-06T04:29:42;96682.06;;;15.18;100.00
52983;BME280;48698;45.736;13.926;2023-08-06T04:34:45;96528.72;;;14.14;100.00
52983;BME280;48698;45.736;13.926;2023-08-06T04:39:47;96605.28;;;14.67;100.00
52983;BME280;48698;45.736;13.926;2023-08-06T04:44:50;96661.56;;;14.86;100.00
52983;BME280;48698;45.736;13.926;2023-08-06T04:49:53;96566.47;;;14.09;100.00
52983;BME280;48698;45.736;13.926;2023-08-06T04:54:56;96641.06;;;14.44;100.00
52983;BME280;48698;45.736;13.926;2023-08-06T04:59:58;96627.22;;;14.39;100.00
52983;BME280;48698;45.736;13.926;2023-08-06T05:05:01;96700.13;;;15.05;100.00
52983;BME280;48698;45.736;13.926;2023-08-06T05:10:04;96645.53;;;14.75;100.00
52983;BME280;48698;45.736;13.926;2023-08-06T05:15:08;96687.31;;;14.87;100.00
52983;BME280;48698;45.736;13.926;2023-08-06T05:20:11;96714.47;;;15.04;100.00
52983;BME280;48698;45.736;13.926;2023-08-06T05:25:14;96670.41;;;14.87;100.00
52983;BME280;48698;45.736;13.926;2023-08-06T05:30:17;96701.56;;;14.77;100.00
52983;BME280;48698;45.736;13.926;2023-08-06T05:35:19;96716.47;;;14.79;100.00
52983;BME280;48698;45.736;13.926;2023-08-06T05:40:22;96624.47;;;14.18;100.00
52983;BME280;48698;45.736;13.926;2023-08-06T05:45:25;96616.31;;;14.20;100.00
52983;BME280;48698;45.736;13.926;2023-08-06T05:50:28;96687.28;;;14.56;100.00
52983;BME280;48698;45.736;13.926;2023-08-06T05:55:31;96731.31;;;14.83;100.00
52983;BME280;48698;45.736;13.926;2023-08-06T06:00:35;96651.00;;;14.42;100.00
52983;BME280;48698;45.736;13.926;2023-08-06T06:05:38;96756.34;;;15.14;100.00
52983;BME280;48698;45.736;13.926;2023-08-06T06:10:44;96748.44;;;15.13;100.00
52983;BME280;48698;45.736;13.926;2023-08-06T06:15:47;96621.44;;;14.34;100.00
52983;BME280;48698;45.736;13.926;2023-08-06T06:20:50;96644.13;;;14.71;100.00
52983;BME280;48698;45.736;13.926;2023-08-06T06:25:53;96573.59;;;14.20;100.00
52983;BME280;48698;45.736;13.926;2023-08-06T06:31:00;96691.63;;;14.99;100.00
52983;BME280;48698;45.736;13.926;2023-08-06T06:36:04;96714.97;;;15.18;100.00
52983;BME280;48698;45.736;13.926;2023-08-06T06:41:06;96571.34;;;14.47;100.00
52983;BME280;48698;45.736;13.926;2023-08-06T06:46:09;96638.38;;;15.08;100.00
52983;BME280;48698;45.736;13.926;2023-08-06T06:51:12;96569.31;;;14.71;100.00
52983;BME280;48698;45.736;13.926;2023-08-06T06:56:15;96600.06;;;14.86;100.00
52983;BME280;48698;45.736;13.926;2023-08-06T07:01:17;96701.44;;;15.31;100.00
52983;BME280;48698;45.736;13.926;2023-08-06T07:06:20;96594.78;;;14.75;100.00
52983;BME280;48698;45.736;13.926;2023-08-06T07:11:23;96703.31;;;15.81;100.00
52983;BME280;48698;45.736;13.926;2023-08-06T07:16:26;96724.22;;;16.18;100.00
52983;BME280;48698;45.736;13.926;2023-08-06T07:21:29;96680.28;;;15.90;100.00
52983;BME280;48698;45.736;13.926;2023-08-06T07:26:32;96748.50;;;15.75;100.00
52983;BME280;48698;45.736;13.926;2023-08-06T07:31:34;96683.47;;;15.54;100.00
52983;BME280;48698;45.736;13.926;2023-08-06T07:36:37;96675.03;;;15.37;100.00
52983;BME280;48698;45.736;13.926;2023-08-06T07:41:40;96638.53;;;14.95;100.00
52983;BME280;48698;45.736;13.926;2023-08-06T07:46:43;96597.84;;;14.91;100.00
52983;BME280;48698;45.736;13.926;2023-08-06T07:51:49;96726.13;;;15.76;100.00
52983;BME280;48698;45.736;13.926;2023-08-06T07:56:54;96751.50;;;16.02;100.00
52983;BME280;48698;45.736;13.926;2023-08-06T08:01:58;96670.84;;;15.65;100.00
52983;BME280;48698;45.736;13.926;2023-08-06T08:07:01;96738.50;;;16.28;100.00
52983;BME280;48698;45.736;13.926;2023-08-06T08:12:03;96614.97;;;15.81;100.00
52983;BME280;48698;45.736;13.926;2023-08-06T08:17:06;96749.59;;;16.53;100.00
52983;BME280;48698;45.736;13.926;2023-08-06T08:22:09;96731.44;;;16.57;100.00
52983;BME280;48698;45.736;13.926;2023-08-06T08:27:12;96762.28;;;17.11;100.00
52983;BME280;48698;45.736;13.926;2023-08-06T08:32:15;96715.13;;;16.79;100.00
52983;BME280;48698;45.736;13.926;2023-08-06T08:37:18;96742.94;;;16.97;100.00
52983;BME280;48698;45.736;13.926;2023-08-06T08:42:21;96711.88;;;16.76;100.00
52983;BME280;48698;45.736;13.926;2023-08-06T08:47:24;96726.31;;;17.13;100.00
52983;BME280;48698;45.736;13.926;2023-08-06T08:52:27;96772.06;;;17.79;100.00
52983;BME280;48698;45.736;13.926;2023-08-06T08:57:35;96743.94;;;17.54;100.00
52983;BME280;48698;45.736;13.926;2023-08-06T09:02:39;96751.19;;;17.73;100.00
52983;BME280;48698;45.736;13.926;2023-08-06T09:07:42;96790.41;;;18.49;100.00
52983;BME280;48698;45.736;13.926;2023-08-06T09:12:51;96678.94;;;17.79;100.00
52983;BME280;48698;45.736;13.926;2023-08-06T09:17:55;96720.75;;;17.82;100.00
52983;BME280;48698;45.736;13.926;2023-08-06T09:22:58;96611.50;;;17.26;100.00
52983;BME280;48698;45.736;13.926;2023-08-06T16:00:24;96998.66;;;14.48;100.00
52983;BME280;48698;45.736;13.926;2023-08-06T16:05:28;97064.16;;;13.21;100.00
52983;BME280;48698;45.736;13.926;2023-08-06T16:10:32;97075.78;;;13.33;100.00
52983;BME280;48698;45.736;13.926;2023-08-06T16:15:36;97004.03;;;13.17;100.00
52983;BME280;48698;45.736;13.926;2023-08-06T16:20:43;97047.84;;;13.75;100.00
52983;BME280;48698;45.736;13.926;2023-08-06T16:25:46;97107.94;;;14.04;100.00
52983;BME280;48698;45.736;13.926;2023-08-06T16:30:51;97037.25;;;13.37;100.00
52983;BME280;48698;45.736;13.926;2023-08-06T16:35:56;97030.78;;;13.28;100.00
52983;BME280;48698;45.736;13.926;2023-08-06T16:40:59;97125.38;;;13.48;100.00
52983;BME280;48698;45.736;13.926;2023-08-06T16:46:03;97123.88;;;13.44;100.00
52983;BME280;48698;45.736;13.926;2023-08-06T16:51:06;97076.31;;;12.87;100.00
52983;BME280;48698;45.736;13.926;2023-08-06T16:56:10;97112.97;;;12.96;100.00
52983;BME280;48698;45.736;13.926;2023-08-06T17:01:14;97154.28;;;13.54;100.00
52983;BME280;48698;45.736;13.926;2023-08-06T17:06:18;97139.78;;;13.33;100.00
52983;BME280;48698;45.736;13.926;2023-08-06T17:11:24;97139.69;;;13.22;100.00
52983;BME280;48698;45.736;13.926;2023-08-06T17:16:28;97112.66;;;13.39;100.00
52983;BME280;48698;45.736;13.926;2023-08-06T17:21:32;97148.19;;;13.65;100.00
52983;BME280;48698;45.736;13.926;2023-08-06T17:26:38;97135.41;;;13.32;100.00
52983;BME280;48698;45.736;13.926;2023-08-06T17:31:41;97115.88;;;13.44;100.00
52983;BME280;48698;45.736;13.926;2023-08-06T17:36:45;97014.75;;;13.41;100.00
52983;BME280;48698;45.736;13.926;2023-08-06T17:41:49;97030.16;;;14.09;100.00
52983;BME280;48698;45.736;13.926;2023-08-06T17:46:53;97007.13;;;14.42;100.00
52983;BME280;48698;45.736;13.926;2023-08-06T17:52:02;96985.44;;;14.69;100.00
52983;BME280;48698;45.736;13.926;2023-08-06T17:57:06;96949.88;;;14.91;100.00
52983;BME280;48698;45.736;13.926;2023-08-06T18:02:10;96882.56;;;14.97;100.00
52983;BME280;48698;45.736;13.926;2023-08-06T18:07:14;96942.22;;;14.97;100.00
52983;BME280;48698;45.736;13.926;2023-08-06T18:12:18;96963.16;;;14.35;100.00
52983;BME280;48698;45.736;13.926;2023-08-06T18:17:21;96904.78;;;13.37;100.00
52983;BME280;48698;45.736;13.926;2023-08-06T18:22:25;96945.97;;;13.57;100.00
52983;BME280;48698;45.736;13.926;2023-08-06T18:27:28;96937.19;;;13.44;100.00
52983;BME280;48698;45.736;13.926;2023-08-06T18:32:32;96973.03;;;13.64;100.00
52983;BME280;48698;45.736;13.926;2023-08-06T18:37:36;97025.22;;;13.68;100.00
52983;BME280;48698;45.736;13.926;2023-08-06T18:42:42;96859.34;;;12.54;100.00
52983;BME280;48698;45.736;13.926;2023-08-06T18:47:45;96943.63;;;12.55;100.00
52983;BME280;48698;45.736;13.926;2023-08-06T18:52:49;97030.66;;;12.67;100.00
52983;BME280;48698;45.736;13.926;2023-08-06T18:57:52;97000.72;;;12.51;100.00
52983;BME280;48698;45.736;13.926;2023-08-06T19:02:55;97041.22;;;12.56;100.00
52983;BME280;48698;45.736;13.926;2023-08-06T19:07:58;97044.19;;;12.51;100.00
52983;BME280;48698;45.736;13.926;2023-08-06T19:13:10;96966.22;;;11.84;100.00
52983;BME280;48698;45.736;13.926;2023-08-06T19:18:13;97026.34;;;11.87;100.00
52983;BME280;48698;45.736;13.926;2023-08-06T19:23:16;97040.41;;;11.89;100.00
52983;BME280;48698;45.736;13.926;2023-08-06T19:28:21;96981.56;;;11.40;100.00
52983;BME280;48698;45.736;13.926;2023-08-06T19:33:25;97070.03;;;11.97;100.00
52983;BME280;48698;45.736;13.926;2023-08-06T19:38:28;96921.09;;;11.03;100.00
52983;BME280;48698;45.736;13.926;2023-08-06T19:43:32;97052.81;;;11.62;100.00
52983;BME280;48698;45.736;13.926;2023-08-06T19:48:34;96989.34;;;11.43;100.00
52983;BME280;48698;45.736;13.926;2023-08-06T19:53:37;96956.16;;;11.22;100.00
52983;BME280;48698;45.736;13.926;2023-08-06T19:58:42;97033.75;;;11.96;100.00
52983;BME280;48698;45.736;13.926;2023-08-06T20:03:45;97024.44;;;11.62;100.00
52983;BME280;48698;45.736;13.926;2023-08-06T20:08:48;97043.69;;;11.66;100.00
52983;BME280;48698;45.736;13.926;2023-08-06T20:13:50;97074.00;;;11.77;100.00
52983;BME280;48698;45.736;13.926;2023-08-06T20:18:53;96932.88;;;10.84;100.00
52983;BME280;48698;45.736;13.926;2023-08-06T20:23:56;96995.28;;;11.20;100.00
52983;BME280;48698;45.736;13.926;2023-08-06T20:28:59;97015.56;;;11.35;100.00
52983;BME280;48698;45.736;13.926;2023-08-06T20:34:03;97036.22;;;11.44;100.00
52983;BME280;48698;45.736;13.926;2023-08-06T20:39:06;97035.56;;;11.55;100.00
52983;BME280;48698;45.736;13.926;2023-08-06T20:44:09;96924.38;;;10.51;100.00
52983;BME280;48698;45.736;13.926;2023-08-06T20:49:12;97056.94;;;11.53;100.00
52983;BME280;48698;45.736;13.926;2023-08-06T20:54:15;97026.56;;;11.43;100.00
52983;BME280;48698;45.736;13.926;2023-08-06T20:59:18;97032.63;;;11.45;100.00
52983;BME280;48698;45.736;13.926;2023-08-06T21:04:21;97041.16;;;11.50;100.00
52983;BME280;48698;45.736;13.926;2023-08-06T21:09:23;96878.13;;;10.41;100.00
52983;BME280;48698;45.736;13.926;2023-08-06T21:14:26;96978.56;;;11.18;100.00
52983;BME280;48698;45.736;13.926;2023-08-06T21:19:30;97039.06;;;11.55;100.00
52983;BME280;48698;45.736;13.926;2023-08-06T21:24:34;97007.75;;;11.46;100.00
52983;BME280;48698;45.736;13.926;2023-08-06T21:29:37;97008.94;;;11.28;100.00
52983;BME280;48698;45.736;13.926;2023-08-06T21:34:40;97019.81;;;11.37;100.00
52983;BME280;48698;45.736;13.926;2023-08-06T21:39:42;97064.00;;;11.40;100.00
52983;BME280;48698;45.736;13.926;2023-08-06T21:44:46;96959.25;;;10.31;100.00
52983;BME280;48698;45.736;13.926;2023-08-06T21:49:49;97010.59;;;10.88;100.00
52983;BME280;48698;45.736;13.926;2023-08-06T21:54:51;96949.59;;;10.30;100.00
52983;BME280;48698;45.736;13.926;2023-08-06T21:59:54;96889.56;;;10.13;100.00
52983;BME280;48698;45.736;13.926;2023-08-06T22:04:57;97049.00;;;10.82;100.00
52983;BME280;48698;45.736;13.926;2023-08-06T22:10:00;97022.06;;;10.60;100.00
52983;BME280;48698;45.736;13.926;2023-08-06T22:15:02;97040.00;;;10.85;100.00
52983;BME280;48698;45.736;13.926;2023-08-06T22:20:06;97011.44;;;10.60;100.00
52983;BME280;48698;45.736;13.926;2023-08-06T22:25:09;96968.56;;;10.38;100.00
52983;BME280;48698;45.736;13.926;2023-08-06T22:30:12;97062.88;;;11.02;100.00
52983;BME280;48698;45.736;13.926;2023-08-06T22:35:16;97116.31;;;11.39;100.00
52983;BME280;48698;45.736;13.926;2023-08-06T22:40:19;97115.44;;;11.39;100.00
52983;BME280;48698;45.736;13.926;2023-08-06T22:45:22;97085.06;;;11.15;100.00
52983;BME280;48698;45.736;13.926;2023-08-06T22:50:25;97133.09;;;11.54;100.00
52983;BME280;48698;45.736;13.926;2023-08-06T22:55:27;97118.66;;;11.58;100.00
52983;BME280;48698;45.736;13.926;2023-08-06T23:00:50;97014.50;;;10.97;100.00
52983;BME280;48698;45.736;13.926;2023-08-06T23:05:53;97144.00;;;11.92;100.00
52983;BME280;48698;45.736;13.926;2023-08-06T23:10:56;97136.56;;;11.97;100.00
52983;BME280;48698;45.736;13.926;2023-08-06T23:15:59;97086.06;;;11.55;100.00
52983;BME280;48698;45.736;13.926;2023-08-06T23:21:02;97051.06;;;11.34;100.00
52983;BME280;48698;45.736;13.926;2023-08-06T23:26:04;97128.91;;;11.78;100.00
52983;BME280;48698;45.736;13.926;2023-08-06T23:31:07;97000.44;;;10.95;100.00
52983;BME280;48698;45.736;13.926;2023-08-06T23:36:10;97166.63;;;11.71;100.00
52983;BME280;48698;45.736;13.926;2023-08-06T23:41:13;97153.41;;;11.55;100.00
52983;BME280;48698;45.736;13.926;2023-08-06T23:46:15;97127.38;;;11.60;100.00
52983;BME280;48698;45.736;13.926;2023-08-06T23:51:18;97170.53;;;11.79;100.00
52983;BME280;48698;45.736;13.926;2023-08-06T23:56:22;97211.03;;;12.11;100.00
